createdAt,value
2019-02-05T00:00:25.784Z,101342.20
2019-02-05T00:01:29.200Z,101334.34
2019-02-05T00:02:30.308Z,101330.34
2019-02-05T00:03:31.484Z,101328.65
2019-02-05T00:04:32.596Z,101330.45
2019-02-05T00:05:33.845Z,101329.11
2019-02-05T00:06:34.949Z,101332.28
2019-02-05T00:07:36.065Z,101327.78
2019-02-05T00:08:37.180Z,101327.92
2019-02-05T00:09:38.296Z,101328.86
2019-02-05T00:10:39.781Z,101335.06
2019-02-05T00:11:40.987Z,101336.03
2019-02-05T00:12:42.096Z,101338.33
2019-02-05T00:13:43.313Z,101340.63
2019-02-05T00:14:44.442Z,101338.94
2019-02-05T00:15:45.697Z,101332.27
2019-02-05T00:16:46.811Z,101330.20
2019-02-05T00:17:47.927Z,101329.60
2019-02-05T00:18:51.627Z,101328.02
2019-02-05T00:19:52.176Z,101324.52
2019-02-05T00:20:53.500Z,101323.64
2019-02-05T00:21:54.881Z,101327.17
2019-02-05T00:22:55.985Z,101325.84
2019-02-05T00:23:57.104Z,101319.17
2019-02-05T00:24:58.225Z,101324.01
2019-02-05T00:26:06.365Z,101324.52
2019-02-05T00:27:02.896Z,101327.17
2019-02-05T00:28:04.008Z,101322.20
2019-02-05T00:29:05.120Z,101324.38
2019-02-05T00:30:10.137Z,101319.17
2019-02-05T00:31:11.257Z,101322.94
2019-02-05T00:32:12.377Z,101314.20
2019-02-05T00:33:14.191Z,101312.27
2019-02-05T00:34:15.404Z,101309.70
2019-02-05T00:35:16.518Z,101306.94
2019-02-05T00:36:17.667Z,101307.30
2019-02-05T00:37:18.787Z,101310.94
2019-02-05T00:38:19.904Z,101311.30
2019-02-05T00:39:21.420Z,101311.30
2019-02-05T00:40:22.561Z,101309.97
2019-02-05T00:41:23.659Z,101308.63
2019-02-05T00:42:24.776Z,101303.66
2019-02-05T00:43:25.889Z,101306.44
2019-02-05T00:44:27.001Z,101303.30
2019-02-05T00:45:28.217Z,101296.62
2019-02-05T00:46:29.426Z,101304.02
2019-02-05T00:47:32.300Z,101302.69
2019-02-05T00:48:33.549Z,101291.16
2019-02-05T00:49:34.680Z,101292.85
2019-02-05T00:50:35.793Z,101290.19
2019-02-05T00:51:36.904Z,101290.58
2019-02-05T00:52:38.016Z,101289.25
2019-02-05T00:53:39.130Z,101279.05
2019-02-05T00:54:40.331Z,101287.52
2019-02-05T00:55:41.468Z,101289.25
2019-02-05T00:56:42.577Z,101287.41
2019-02-05T00:57:44.394Z,101285.25
2019-02-05T00:58:45.508Z,101287.05
2019-02-05T00:59:46.636Z,101284.02
2019-02-05T01:00:47.853Z,101288.02
2019-02-05T01:01:48.960Z,101284.86
2019-02-05T01:02:50.574Z,101285.72
2019-02-05T01:03:51.691Z,101283.05
2019-02-05T01:04:52.816Z,101289.36
2019-02-05T01:05:54.228Z,101282.59
2019-02-05T01:06:55.544Z,101282.19
2019-02-05T01:07:56.954Z,101281.25
2019-02-05T01:08:58.172Z,101283.05
2019-02-05T01:09:59.302Z,101274.19
2019-02-05T01:11:00.416Z,101280.02
2019-02-05T01:12:01.528Z,101278.69
2019-02-05T01:13:02.840Z,101279.52
2019-02-05T01:14:04.459Z,101284.86
2019-02-05T01:15:09.324Z,101280.85
2019-02-05T01:16:10.437Z,101277.83
2019-02-05T01:17:12.047Z,101273.83
2019-02-05T01:18:13.169Z,101272.62
2019-02-05T01:19:14.292Z,101275.77
2019-02-05T01:20:17.937Z,101278.44
2019-02-05T01:21:19.051Z,101280.63
2019-02-05T01:22:22.067Z,101280.63
2019-02-05T01:23:23.183Z,101282.80
2019-02-05T01:24:24.293Z,101287.30
2019-02-05T01:25:25.566Z,101283.30
2019-02-05T01:26:29.478Z,101279.77
2019-02-05T01:27:29.676Z,101289.09
2019-02-05T01:28:30.787Z,101280.27
2019-02-05T01:29:31.907Z,101289.09
2019-02-05T01:30:33.063Z,101288.63
2019-02-05T01:31:34.174Z,101291.66
2019-02-05T01:32:35.287Z,101287.66
2019-02-05T01:33:36.409Z,101288.99
2019-02-05T01:34:37.620Z,101287.52
2019-02-05T01:35:38.768Z,101288.85
2019-02-05T01:36:40.288Z,101287.52
2019-02-05T01:37:41.596Z,101293.61
2019-02-05T01:38:42.709Z,101291.41
2019-02-05T01:39:43.823Z,101287.05
2019-02-05T01:40:44.975Z,101291.41
2019-02-05T01:41:46.092Z,101289.25
2019-02-05T01:42:47.304Z,101291.41
2019-02-05T01:43:48.416Z,101294.59
2019-02-05T01:44:49.529Z,101289.72
2019-02-05T01:45:51.051Z,101297.72
2019-02-05T01:46:52.168Z,101295.52
2019-02-05T01:47:53.383Z,101294.69
2019-02-05T01:48:54.496Z,101290.33
2019-02-05T01:49:55.623Z,101289.83
2019-02-05T01:50:56.729Z,101289.83
2019-02-05T01:51:57.836Z,101285.96
2019-02-05T01:52:58.961Z,101284.13
2019-02-05T01:54:00.178Z,101283.30
2019-02-05T01:55:02.286Z,101285.46
2019-02-05T01:56:03.533Z,101291.66
2019-02-05T01:57:04.649Z,101285.96
2019-02-05T01:58:05.859Z,101274.43
2019-02-05T01:59:06.972Z,101276.27
2019-02-05T02:00:11.586Z,101277.96
2019-02-05T02:01:12.711Z,101277.09
2019-02-05T02:02:13.817Z,101278.94
2019-02-05T02:03:14.929Z,101282.43
2019-02-05T02:04:16.345Z,101276.73
2019-02-05T02:05:17.564Z,101277.59
2019-02-05T02:06:18.817Z,101275.55
2019-02-05T02:07:20.035Z,101275.55
2019-02-05T02:08:21.141Z,101276.27
2019-02-05T02:09:22.353Z,101273.59
2019-02-05T02:10:25.472Z,101280.73
2019-02-05T02:11:26.803Z,101278.94
2019-02-05T02:12:27.908Z,101279.77
2019-02-05T02:13:29.328Z,101283.77
2019-02-05T02:14:30.432Z,101278.94
2019-02-05T02:15:31.590Z,101275.30
2019-02-05T02:16:32.741Z,101280.63
2019-02-05T02:17:33.848Z,101271.30
2019-02-05T02:18:35.077Z,101268.13
2019-02-05T02:19:36.312Z,101268.99
2019-02-05T02:20:37.429Z,101270.80
2019-02-05T02:21:38.573Z,101267.66
2019-02-05T02:22:39.979Z,101264.13
2019-02-05T02:23:41.092Z,101261.46
2019-02-05T02:24:42.205Z,101260.99
2019-02-05T02:25:43.320Z,101254.33
2019-02-05T02:26:51.853Z,101254.69
2019-02-05T02:27:49.113Z,101256.48
2019-02-05T02:28:50.345Z,101249.35
2019-02-05T02:29:51.565Z,101242.33
2019-02-05T02:30:52.694Z,101251.66
2019-02-05T02:31:53.932Z,101250.33
2019-02-05T02:32:55.393Z,101256.02
2019-02-05T02:33:56.489Z,101255.66
2019-02-05T02:34:57.603Z,101257.46
2019-02-05T02:35:58.712Z,101258.33
2019-02-05T02:36:59.843Z,101259.16
2019-02-05T02:38:01.063Z,101251.66
2019-02-05T02:39:04.877Z,101247.66
2019-02-05T02:40:07.889Z,101239.66
2019-02-05T02:41:09.205Z,101247.52
2019-02-05T02:42:10.765Z,101244.02
2019-02-05T02:43:11.881Z,101244.02
2019-02-05T02:44:12.993Z,101248.38
2019-02-05T02:45:14.411Z,101244.85
2019-02-05T02:46:15.520Z,101243.05
2019-02-05T02:47:16.871Z,101241.72
2019-02-05T02:48:17.983Z,101241.72
2019-02-05T02:49:19.099Z,101237.72
2019-02-05T02:50:21.122Z,101240.02
2019-02-05T02:51:22.738Z,101239.52
2019-02-05T02:52:23.860Z,101241.72
2019-02-05T02:53:25.096Z,101245.35
2019-02-05T02:54:26.319Z,101246.69
2019-02-05T02:55:27.439Z,101249.35
2019-02-05T02:56:28.540Z,101246.69
2019-02-05T02:57:29.660Z,101244.85
2019-02-05T02:58:30.894Z,101244.02
2019-02-05T02:59:31.993Z,101247.16
2019-02-05T03:00:33.619Z,101247.05
2019-02-05T03:01:34.843Z,101255.52
2019-02-05T03:02:35.989Z,101258.19
2019-02-05T03:03:37.105Z,101256.85
2019-02-05T03:04:38.224Z,101258.19
2019-02-05T03:05:39.342Z,101250.19
2019-02-05T03:06:40.455Z,101252.02
2019-02-05T03:07:41.880Z,101247.66
2019-02-05T03:08:42.995Z,101252.12
2019-02-05T03:09:44.316Z,101253.96
2019-02-05T03:10:45.428Z,101255.30
2019-02-05T03:11:46.644Z,101258.43
2019-02-05T03:12:47.970Z,101255.77
2019-02-05T03:13:49.182Z,101249.70
2019-02-05T03:14:50.341Z,101248.73
2019-02-05T03:15:51.520Z,101249.23
2019-02-05T03:16:52.641Z,101248.88
2019-02-05T03:17:54.088Z,101252.73
2019-02-05T03:18:55.210Z,101251.54
2019-02-05T03:19:56.333Z,101249.34
2019-02-05T03:20:57.441Z,101251.54
2019-02-05T03:21:58.555Z,101252.02
2019-02-05T03:22:59.690Z,101258.67
2019-02-05T03:24:00.798Z,101255.55
2019-02-05T03:25:04.709Z,101252.88
2019-02-05T03:26:06.219Z,101243.17
2019-02-05T03:27:17.411Z,101246.56
2019-02-05T03:28:10.393Z,101252.38
2019-02-05T03:29:11.616Z,101247.54
2019-02-05T03:30:15.230Z,101251.54
2019-02-05T03:31:16.546Z,101251.91
2019-02-05T03:32:17.661Z,101254.20
2019-02-05T03:33:18.787Z,101254.57
2019-02-05T03:34:20.005Z,101258.57
2019-02-05T03:35:22.114Z,101263.30
2019-02-05T03:36:23.229Z,101260.73
2019-02-05T03:37:24.343Z,101252.27
2019-02-05T03:38:25.495Z,101253.96
2019-02-05T03:39:26.606Z,101256.27
2019-02-05T03:40:31.380Z,101249.09
2019-02-05T03:41:32.561Z,101252.98
2019-02-05T03:42:33.670Z,101253.96
2019-02-05T03:43:35.397Z,101253.96
2019-02-05T03:44:36.914Z,101253.59
2019-02-05T03:45:38.221Z,101256.63
2019-02-05T03:46:39.429Z,101259.77
2019-02-05T03:47:40.555Z,101257.46
2019-02-05T03:48:42.476Z,101255.66
2019-02-05T03:49:43.889Z,101257.83
2019-02-05T03:50:47.999Z,101266.69
2019-02-05T03:51:52.718Z,101258.69
2019-02-05T03:53:00.472Z,101259.05
2019-02-05T03:54:17.500Z,101262.19
2019-02-05T03:55:30.958Z,101257.35
2019-02-05T03:56:47.891Z,101262.69
2019-02-05T03:58:12.607Z,101266.69
2019-02-05T03:59:51.424Z,101260.99
2019-02-05T04:01:19.110Z,101259.91
2019-02-05T04:02:51.445Z,101259.64
2019-02-05T04:03:58.861Z,101260.25
2019-02-05T04:05:20.469Z,101263.66
2019-02-05T04:06:34.383Z,101272.14
2019-02-05T04:07:57.469Z,101264.27
2019-02-05T04:09:07.216Z,101271.91
2019-02-05T04:10:33.380Z,101266.31
2019-02-05T04:11:47.157Z,101270.31
2019-02-05T04:13:00.635Z,101264.16
2019-02-05T04:14:23.621Z,101269.95
2019-02-05T04:15:37.549Z,101276.76
2019-02-05T04:17:08.369Z,101273.70
2019-02-05T04:18:25.460Z,101274.20
2019-02-05T04:19:36.255Z,101276.97
2019-02-05T04:21:00.719Z,101279.63
2019-02-05T04:22:33.070Z,101275.77
2019-02-05T04:23:37.789Z,101273.58
2019-02-05T04:25:08.557Z,101276.23
2019-02-05T04:26:19.042Z,101283.88
2019-02-05T04:27:29.501Z,101283.51
2019-02-05T04:28:49.620Z,101286.54
2019-02-05T04:30:11.145Z,101289.81
2019-02-05T04:31:34.191Z,101285.81
2019-02-05T04:32:44.658Z,101282.17
2019-02-05T04:34:12.222Z,101283.51
2019-02-05T04:35:29.144Z,101282.67
2019-02-05T04:36:42.735Z,101276.48
2019-02-05T04:38:02.362Z,101275.52
2019-02-05T04:39:12.559Z,101272.48
2019-02-05T04:40:26.278Z,101278.68
2019-02-05T04:41:48.719Z,101275.52
2019-02-05T04:43:08.669Z,101274.18
2019-02-05T04:44:13.388Z,101277.58
2019-02-05T04:45:34.306Z,101274.55
2019-02-05T04:46:46.128Z,101271.05
2019-02-05T04:48:07.941Z,101273.21
2019-02-05T04:49:18.602Z,101276.74
2019-02-05T04:50:41.412Z,101272.84
2019-02-05T04:51:46.133Z,101276.84
2019-02-05T04:52:50.855Z,101275.88
2019-02-05T04:54:25.512Z,101268.02
2019-02-05T04:55:30.228Z,101275.52
2019-02-05T04:56:40.701Z,101265.35
2019-02-05T04:57:57.022Z,101272.02
2019-02-05T04:59:16.269Z,101274.68
2019-02-05T05:00:27.107Z,101271.52
2019-02-05T05:01:32.128Z,101271.88
2019-02-05T05:03:02.776Z,101271.88
2019-02-05T05:04:13.572Z,101270.55
2019-02-05T05:05:24.337Z,101268.84
2019-02-05T05:06:29.053Z,101271.88
2019-02-05T05:07:43.229Z,101274.18
2019-02-05T05:09:10.767Z,101274.18
2019-02-05T05:10:11.888Z,101270.18
2019-02-05T05:11:13.005Z,101268.75
2019-02-05T05:12:14.116Z,101265.71
2019-02-05T05:13:15.529Z,101261.72
2019-02-05T05:14:16.637Z,101265.71
2019-02-05T05:15:17.978Z,101261.22
2019-02-05T05:16:19.370Z,101262.08
2019-02-05T05:17:20.491Z,101262.80
2019-02-05T05:18:21.604Z,101259.17
2019-02-05T05:19:22.913Z,101261.70
2019-02-05T05:20:24.745Z,101255.43
2019-02-05T05:21:26.271Z,101261.59
2019-02-05T05:22:27.885Z,101259.29
2019-02-05T05:23:29.296Z,101260.98
2019-02-05T05:24:30.504Z,101264.02
2019-02-05T05:25:31.930Z,101262.22
2019-02-05T05:26:33.034Z,101259.91
2019-02-05T05:27:34.250Z,101258.58
2019-02-05T05:28:39.068Z,101254.08
2019-02-05T05:29:40.477Z,101256.27
2019-02-05T05:30:41.731Z,101259.77
2019-02-05T05:31:43.344Z,101261.47
2019-02-05T05:32:44.576Z,101257.97
2019-02-05T05:33:45.692Z,101255.77
2019-02-05T05:34:46.808Z,101252.28
2019-02-05T05:35:47.958Z,101257.11
2019-02-05T05:36:48.758Z,101257.47
2019-02-05T05:37:49.985Z,101258.34
2019-02-05T05:38:51.287Z,101261.11
2019-02-05T05:39:52.703Z,101267.16
2019-02-05T05:40:53.855Z,101265.00
2019-02-05T05:41:54.965Z,101267.66
2019-02-05T05:42:56.084Z,101269.47
2019-02-05T05:43:57.302Z,101272.03
2019-02-05T05:44:58.413Z,101267.66
2019-02-05T05:45:59.534Z,101272.86
2019-02-05T05:47:00.648Z,101271.42
2019-02-05T05:48:01.760Z,101265.83
2019-02-05T05:49:03.267Z,101271.06
2019-02-05T05:50:07.987Z,101274.56
2019-02-05T05:51:09.132Z,101272.39
2019-02-05T05:52:10.253Z,101273.72
2019-02-05T05:53:11.378Z,101272.39
2019-02-05T05:54:12.471Z,101266.70
2019-02-05T05:55:13.629Z,101272.39
2019-02-05T05:56:14.760Z,101269.22
2019-02-05T05:57:18.673Z,101266.19
2019-02-05T05:58:23.038Z,101267.53
2019-02-05T05:59:22.034Z,101267.42
2019-02-05T06:00:23.235Z,101263.06
2019-02-05T06:01:24.467Z,101260.86
2019-02-05T06:02:25.585Z,101260.86
2019-02-05T06:03:26.700Z,101265.23
2019-02-05T06:04:27.810Z,101264.50
2019-02-05T06:05:29.016Z,101262.34
2019-02-05T06:06:30.140Z,101266.33
2019-02-05T06:07:31.660Z,101268.50
2019-02-05T06:08:33.676Z,101261.97
2019-02-05T06:09:34.791Z,101269.36
2019-02-05T06:10:35.906Z,101261.83
2019-02-05T06:11:37.172Z,101271.53
2019-02-05T06:12:38.286Z,101270.09
2019-02-05T06:13:39.498Z,101272.25
2019-02-05T06:14:40.611Z,101272.98
2019-02-05T06:15:42.023Z,101265.23
2019-02-05T06:16:43.171Z,101268.99
2019-02-05T06:17:44.298Z,101265.61
2019-02-05T06:18:45.412Z,101267.16
2019-02-05T06:19:46.645Z,101265.95
2019-02-05T06:20:47.769Z,101257.23
2019-02-05T06:21:48.920Z,101258.68
2019-02-05T06:22:50.132Z,101263.16
2019-02-05T06:23:51.340Z,101257.94
2019-02-05T06:24:52.858Z,101260.24
2019-02-05T06:25:53.968Z,101264.22
2019-02-05T06:26:55.090Z,101264.25
2019-02-05T06:27:56.198Z,101269.70
2019-02-05T06:28:57.309Z,101255.02
2019-02-05T06:29:58.522Z,101260.33
2019-02-05T06:30:59.747Z,101259.45
2019-02-05T06:32:00.968Z,101264.31
2019-02-05T06:33:02.085Z,101262.59
2019-02-05T06:34:03.901Z,101263.05
2019-02-05T06:35:05.612Z,101265.20
2019-02-05T06:36:06.722Z,101258.16
2019-02-05T06:37:07.872Z,101261.66
2019-02-05T06:38:08.996Z,101265.14
2019-02-05T06:39:10.103Z,101266.94
2019-02-05T06:40:17.172Z,101265.23
2019-02-05T06:41:18.279Z,101263.02
2019-02-05T06:42:19.401Z,101264.34
2019-02-05T06:43:20.920Z,101266.13
2019-02-05T06:44:22.037Z,101264.78
2019-02-05T06:45:23.149Z,101261.22
2019-02-05T06:46:24.260Z,101258.14
2019-02-05T06:47:25.392Z,101258.77
2019-02-05T06:48:26.505Z,101255.69
2019-02-05T06:49:27.617Z,101265.64
2019-02-05T06:50:28.733Z,101271.44
2019-02-05T06:51:29.844Z,101267.16
2019-02-05T06:52:31.175Z,101270.43
2019-02-05T06:53:32.288Z,101264.81
2019-02-05T06:54:33.400Z,101268.05
2019-02-05T06:55:34.521Z,101266.95
2019-02-05T06:56:35.655Z,101266.69
2019-02-05T06:57:36.760Z,101268.47
2019-02-05T06:58:45.976Z,101263.48
2019-02-05T06:59:41.052Z,101262.73
2019-02-05T07:00:42.570Z,101262.94
2019-02-05T07:01:43.681Z,101272.55
2019-02-05T07:02:45.004Z,101268.88
2019-02-05T07:03:46.119Z,101272.74
2019-02-05T07:04:47.228Z,101275.77
2019-02-05T07:05:48.339Z,101276.17
2019-02-05T07:06:49.460Z,101271.53
2019-02-05T07:07:50.585Z,101272.23
2019-02-05T07:08:51.704Z,101273.94
2019-02-05T07:09:53.314Z,101272.95
2019-02-05T07:10:54.424Z,101271.45
2019-02-05T07:11:55.632Z,101274.48
2019-02-05T07:12:56.860Z,101276.19
2019-02-05T07:13:58.343Z,101273.39
2019-02-05T07:14:59.601Z,101275.08
2019-02-05T07:16:00.718Z,101282.84
2019-02-05T07:17:01.841Z,101272.97
2019-02-05T07:18:03.189Z,101279.53
2019-02-05T07:19:04.704Z,101281.08
2019-02-05T07:20:11.455Z,101275.96
2019-02-05T07:21:12.581Z,101286.66
2019-02-05T07:22:13.689Z,101289.58
2019-02-05T07:23:14.842Z,101281.91
2019-02-05T07:24:15.953Z,101288.32
2019-02-05T07:25:19.577Z,101291.83
2019-02-05T07:26:20.792Z,101288.67
2019-02-05T07:27:21.908Z,101287.19
2019-02-05T07:28:23.365Z,101286.70
2019-02-05T07:29:24.680Z,101288.88
2019-02-05T07:30:26.389Z,101292.54
2019-02-05T07:31:27.498Z,101291.44
2019-02-05T07:32:28.611Z,101294.94
2019-02-05T07:33:29.838Z,101298.48
2019-02-05T07:34:30.952Z,101298.33
2019-02-05T07:35:32.069Z,101296.98
2019-02-05T07:36:33.481Z,101299.55
2019-02-05T07:37:34.660Z,101301.36
2019-02-05T07:38:35.791Z,101306.09
2019-02-05T07:39:36.905Z,101307.81
2019-02-05T07:40:38.019Z,101311.35
2019-02-05T07:41:39.128Z,101306.83
2019-02-05T07:42:40.441Z,101313.05
2019-02-05T07:43:41.596Z,101311.35
2019-02-05T07:44:43.109Z,101310.37
2019-02-05T07:45:44.217Z,101314.86
2019-02-05T07:46:45.332Z,101307.69
2019-02-05T07:47:46.448Z,101312.69
2019-02-05T07:48:47.608Z,101311.70
2019-02-05T07:49:48.738Z,101308.17
2019-02-05T07:50:49.838Z,101313.05
2019-02-05T07:51:51.048Z,101310.84
2019-02-05T07:52:52.259Z,101317.53
2019-02-05T07:53:53.384Z,101318.88
2019-02-05T07:54:54.498Z,101321.55
2019-02-05T07:55:55.612Z,101317.19
2019-02-05T07:56:56.823Z,101320.22
2019-02-05T07:57:57.942Z,101329.58
2019-02-05T07:59:09.527Z,101325.56
2019-02-05T08:00:04.314Z,101329.94
2019-02-05T08:01:05.419Z,101326.43
2019-02-05T08:02:06.829Z,101323.75
2019-02-05T08:03:07.938Z,101327.66
2019-02-05T08:04:09.088Z,101324.47
2019-02-05T08:05:13.604Z,101327.27
2019-02-05T08:06:14.712Z,101326.78
2019-02-05T08:07:15.816Z,101328.13
2019-02-05T08:08:17.069Z,101333.00
2019-02-05T08:09:18.216Z,101335.17
2019-02-05T08:10:20.628Z,101329.47
2019-02-05T08:11:22.242Z,101331.28
2019-02-05T08:12:23.356Z,101329.47
2019-02-05T08:13:24.667Z,101328.24
2019-02-05T08:14:26.121Z,101335.29
2019-02-05T08:15:32.206Z,101339.31
2019-02-05T08:16:34.029Z,101337.61
2019-02-05T08:21:38.766Z,101342.23
2019-02-05T08:22:39.912Z,101347.14
2019-02-05T08:23:41.034Z,101346.42
2019-02-05T08:24:42.154Z,101340.36
2019-02-05T08:25:43.288Z,101340.87
2019-02-05T08:26:44.412Z,101346.22
2019-02-05T08:27:45.851Z,101350.71
2019-02-05T08:28:46.967Z,101352.05
2019-02-05T08:29:48.077Z,101350.71
2019-02-05T08:30:49.200Z,101351.22
2019-02-05T08:31:50.309Z,101357.76
2019-02-05T08:32:51.529Z,101359.09
2019-02-05T08:33:52.640Z,101356.77
2019-02-05T08:34:53.756Z,101363.47
2019-02-05T08:35:54.912Z,101358.98
2019-02-05T08:38:02.833Z,101366.50
2019-02-05T08:39:06.245Z,101361.15
2019-02-05T08:40:19.365Z,101358.63
2019-02-05T08:41:20.841Z,101356.42
2019-02-05T08:42:21.961Z,101356.42
2019-02-05T08:43:23.082Z,101357.05
2019-02-05T08:44:24.197Z,101359.72
2019-02-05T08:45:28.408Z,101358.38
2019-02-05T08:46:29.577Z,101363.73
2019-02-05T08:47:30.699Z,101361.56
2019-02-05T08:48:32.217Z,101369.09
2019-02-05T08:49:33.334Z,101366.41
2019-02-05T08:50:34.947Z,101367.75
2019-02-05T08:51:36.217Z,101366.77
2019-02-05T08:52:37.430Z,101369.09
2019-02-05T08:53:38.544Z,101369.45
2019-02-05T08:54:39.661Z,101372.48
2019-02-05T08:55:40.883Z,101376.14
2019-02-05T08:56:42.557Z,101379.17
2019-02-05T08:57:43.769Z,101382.20
2019-02-05T08:58:44.884Z,101383.19
2019-02-05T08:59:45.999Z,101385.86
2019-02-05T09:00:47.108Z,101385.03
2019-02-05T09:01:48.255Z,101389.05
2019-02-05T09:02:49.364Z,101385.51
2019-02-05T09:03:50.476Z,101380.16
2019-02-05T09:04:51.589Z,101378.45
2019-02-05T09:05:52.699Z,101377.98
2019-02-05T09:06:53.938Z,101382.47
2019-02-05T09:07:55.148Z,101384.80
2019-02-05T09:08:56.263Z,101388.80
2019-02-05T09:09:57.375Z,101388.95
2019-02-05T09:10:58.689Z,101393.80
2019-02-05T09:11:59.809Z,101392.11
2019-02-05T09:13:01.020Z,101395.77
2019-02-05T09:14:10.626Z,101393.45
2019-02-05T09:15:09.047Z,101396.75
2019-02-05T09:16:10.264Z,101395.41
2019-02-05T09:17:11.418Z,101392.38
2019-02-05T09:18:12.639Z,101393.23
2019-02-05T09:19:13.749Z,101400.05
2019-02-05T09:20:16.668Z,101396.50
2019-02-05T09:21:17.782Z,101402.84
2019-02-05T09:22:18.918Z,101398.98
2019-02-05T09:23:20.433Z,101401.30
2019-02-05T09:24:21.544Z,101400.42
2019-02-05T09:25:22.758Z,101403.61
2019-02-05T09:26:23.864Z,101407.98
2019-02-05T09:27:25.115Z,101406.29
2019-02-05T09:28:26.229Z,101404.44
2019-02-05T09:29:33.358Z,101402.63
2019-02-05T09:30:34.864Z,101402.75
2019-02-05T09:31:36.051Z,101404.08
2019-02-05T09:32:37.173Z,101406.29
2019-02-05T09:33:38.287Z,101405.93
2019-02-05T09:34:40.876Z,101410.30
2019-02-05T09:35:42.114Z,101407.98
2019-02-05T09:36:43.223Z,101407.98
2019-02-05T09:37:44.374Z,101411.48
2019-02-05T09:38:45.484Z,101407.83
2019-02-05T09:39:46.600Z,101414.88
2019-02-05T09:40:47.912Z,101411.22
2019-02-05T09:41:49.522Z,101416.46
2019-02-05T09:42:50.774Z,101415.12
2019-02-05T09:43:51.986Z,101417.80
2019-02-05T09:44:53.100Z,101417.17
2019-02-05T09:45:54.217Z,101418.88
2019-02-05T09:46:55.326Z,101414.38
2019-02-05T09:47:56.551Z,101416.55
2019-02-05T09:48:57.767Z,101422.62
2019-02-05T09:49:59.080Z,101424.82
2019-02-05T09:51:00.189Z,101418.96
2019-02-05T09:52:01.304Z,101413.13
2019-02-05T09:53:02.570Z,101414.33
2019-02-05T09:54:03.833Z,101419.31
2019-02-05T09:55:08.146Z,101418.34
2019-02-05T09:56:09.260Z,101420.66
2019-02-05T09:57:10.368Z,101425.18
2019-02-05T09:58:11.493Z,101419.31
2019-02-05T09:59:12.809Z,101421.52
2019-02-05T10:00:17.528Z,101425.03
2019-02-05T10:01:18.636Z,101421.02
2019-02-05T10:02:19.747Z,101419.05
2019-02-05T10:03:20.873Z,101419.41
2019-02-05T10:04:21.992Z,101420.39
2019-02-05T10:05:25.020Z,101423.78
2019-02-05T10:06:26.136Z,101419.77
2019-02-05T10:07:27.250Z,101420.63
2019-02-05T10:08:28.675Z,101414.77
2019-02-05T10:09:29.793Z,101418.78
2019-02-05T10:10:30.920Z,101421.34
2019-02-05T10:11:32.020Z,101424.02
2019-02-05T10:12:33.133Z,101415.48
2019-02-05T10:13:34.261Z,101421.58
2019-02-05T10:14:35.368Z,101412.57
2019-02-05T10:15:39.186Z,101421.47
2019-02-05T10:16:40.303Z,101414.27
2019-02-05T10:17:41.816Z,101415.61
2019-02-05T10:18:45.841Z,101418.16
2019-02-05T10:19:45.973Z,101419.03
2019-02-05T10:20:47.190Z,101423.05
2019-02-05T10:21:48.300Z,101422.89
2019-02-05T10:22:49.828Z,101424.23
2019-02-05T10:23:51.121Z,101427.77
2019-02-05T10:24:52.447Z,101427.27
2019-02-05T10:25:53.626Z,101426.44
2019-02-05T10:26:54.832Z,101428.12
2019-02-05T10:27:56.059Z,101423.61
2019-02-05T10:28:57.216Z,101421.44
2019-02-05T10:29:59.653Z,101428.48
2019-02-05T10:31:01.049Z,101430.19
2019-02-05T10:32:02.356Z,101430.19
2019-02-05T10:33:04.468Z,101425.30
2019-02-05T10:34:05.620Z,101428.22
2019-02-05T10:35:07.832Z,101427.86
2019-02-05T10:36:09.452Z,101426.52
2019-02-05T10:37:10.564Z,101433.22
2019-02-05T10:38:11.671Z,101434.55
2019-02-05T10:39:13.428Z,101431.52
2019-02-05T10:40:15.337Z,101430.19
2019-02-05T10:41:16.450Z,101432.86
2019-02-05T10:42:17.560Z,101433.69
2019-02-05T10:43:18.665Z,101431.52
2019-02-05T10:44:20.088Z,101431.02
2019-02-05T10:45:25.729Z,101430.54
2019-02-05T10:46:26.845Z,101437.23
2019-02-05T10:47:27.964Z,101435.03
2019-02-05T10:48:29.076Z,101435.53
2019-02-05T10:49:30.393Z,101432.23
2019-02-05T10:50:31.528Z,101435.39
2019-02-05T10:51:32.737Z,101438.92
2019-02-05T10:52:33.845Z,101437.59
2019-02-05T10:53:35.666Z,101445.11
2019-02-05T10:54:36.789Z,101447.67
2019-02-05T10:55:38.433Z,101449.02
2019-02-05T10:56:39.546Z,101446.19
2019-02-05T10:57:40.655Z,101449.38
2019-02-05T10:58:41.765Z,101446.69
2019-02-05T10:59:42.999Z,101446.19
2019-02-05T11:00:44.112Z,101447.05
2019-02-05T11:01:45.228Z,101446.55
2019-02-05T11:02:47.437Z,101447.41
2019-02-05T11:03:48.556Z,101451.06
2019-02-05T11:04:49.819Z,101447.05
2019-02-05T11:05:50.936Z,101448.23
2019-02-05T11:06:52.059Z,101454.10
2019-02-05T11:07:53.164Z,101448.23
2019-02-05T11:08:54.272Z,101456.63
2019-02-05T11:09:55.400Z,101455.80
2019-02-05T11:10:56.614Z,101449.10
2019-02-05T11:11:57.831Z,101451.27
2019-02-05T11:12:59.144Z,101448.12
2019-02-05T11:14:00.359Z,101452.14
2019-02-05T11:15:01.486Z,101458.68
2019-02-05T11:16:03.000Z,101451.63
2019-02-05T11:17:04.211Z,101460.53
2019-02-05T11:18:07.423Z,101466.72
2019-02-05T11:19:08.551Z,101460.02
2019-02-05T11:20:16.248Z,101462.58
2019-02-05T11:21:17.768Z,101459.91
2019-02-05T11:22:18.895Z,101460.37
2019-02-05T11:23:20.041Z,101459.55
2019-02-05T11:24:21.269Z,101461.23
2019-02-05T11:25:22.723Z,101457.22
2019-02-05T11:26:23.944Z,101452.22
2019-02-05T11:27:25.156Z,101454.75
2019-02-05T11:28:26.270Z,101458.30
2019-02-05T11:29:27.684Z,101452.94
2019-02-05T11:30:34.000Z,101448.92
2019-02-05T11:31:35.414Z,101452.47
2019-02-05T11:32:36.636Z,101450.61
2019-02-05T11:33:37.847Z,101454.98
2019-02-05T11:34:38.961Z,101442.58
2019-02-05T11:35:40.118Z,101441.75
2019-02-05T11:36:41.228Z,101447.94
2019-02-05T11:37:42.746Z,101447.11
2019-02-05T11:38:44.067Z,101456.33
2019-02-05T11:39:45.283Z,101454.16
2019-02-05T11:40:46.639Z,101450.61
2019-02-05T11:41:47.753Z,101455.14
2019-02-05T11:42:48.863Z,101451.95
2019-02-05T11:43:49.978Z,101454.16
2019-02-05T11:44:51.091Z,101461.33
2019-02-05T11:45:52.232Z,101457.81
2019-02-05T11:46:53.346Z,101458.30
2019-02-05T11:47:56.864Z,101461.84
2019-02-05T11:48:57.978Z,101458.30
2019-02-05T11:49:59.101Z,101465.46
2019-02-05T11:51:00.216Z,101455.62
2019-02-05T11:52:01.325Z,101458.41
2019-02-05T11:53:02.438Z,101460.26
2019-02-05T11:54:03.648Z,101460.61
2019-02-05T11:55:08.364Z,101457.58
2019-02-05T11:56:09.487Z,101459.75
2019-02-05T11:57:11.204Z,101461.09
2019-02-05T11:58:12.824Z,101462.94
2019-02-05T11:59:13.930Z,101462.94
2019-02-05T12:00:19.000Z,101463.92
2019-02-05T12:01:20.217Z,101469.27
2019-02-05T12:02:21.433Z,101461.23